Cachoeirinha, Brazil
Current Conditions -  °F | °C
As of 3:00 AM on Wednesday 26 Nov 2014 (Local Time) from SBMO Reporting Station
Few Clouds Few Clouds  
Wind Chill: 73°   Ceiling: Unl
Heat Index: 73°   Visibility: 6mi
Dew Point: 73°   Wind: 2mph
Humidity: 100%   Direction: 30°NNE
Pressure: 29.88"   Gusts: NA
Location:  8.49°S, 36.23°W
Report Text: SBMO 260600Z 03002KT 9999 FEW020 23/23 Q1012
Loading
Personal Weather Stations






























Interactive Weather Map New forecast layout! Learn more

10-Day Weather Forecast

Advertisements
Track Severe Weather on mobile